CWHN

Jimmy Lake Airport

Jimmy Lake, Canada
METAR CWHN 192200Z AUTO 23002KT 9SM FEW044 FEW090 08/04 A3008 RMK SLP215
Observed Flight Rules
Sep-19 @ 22:00 UTC (34 minutes ago) Visual Flight Rules
Wind Visibility Clouds
230° at 2 knots 9 miles
  • Few at 4,400' AGL
  • Few at 9,000' AGL
Temperatures Readings
Current 8°C / 46°F
Dewpoint 4°C / 39°F
Humidity 76%
Altimeter 30.08" Hg
Pressure 1021.5 hPa
Elevation 636
METAR CWHN 192200Z AUTO 23002KT 9SM FEW044 FEW090 08/04 A3008 RMK SLP215
Observed Flight Rules
Sep-19 @ 22:00 UTC
(34 minutes ago)
VFR
Wind Visibility
230° at 2 knots 9 miles
Clouds
  • Few at 4,400' AGL
  • Few at 9,000' AGL
Temperature Dewpoint
8°C / 46°F 4°C / 39°F
Humidity Altimeter Pressure
76% 30.08" Hg 1021.5 hPa